Time;durP1;ratioP1;P1;durP2;ratioP2;P2;SDS_P1;SDS_P2;PMS_P1;PMS_P2;Temp;Humidity;BMP_temperature;BMP_pressure;BME280_temperature;BME280_humidity;BME280_pressure;Samples;Min_cycle;Max_cycle;Signal;HPM_P1;HPM_P2
2021/09/29 00:00:22;;;;;;;10.88;8.00;;;;;;;;;;5008490;28;20022;-87
2021/09/29 00:02:48;;;;;;;11.48;8.30;;;;;;;;;;5006057;28;20061;-87
2021/09/29 00:05:13;;;;;;;12.38;8.82;;;;;;;;;;5020120;28;20053;-86
2021/09/29 00:07:38;;;;;;;11.15;7.95;;;;;;;;;;5006231;28;20049;-87
2021/09/29 00:10:05;;;;;;;12.90;8.32;;;;;;;;;;5006725;28;20038;-87
2021/09/29 00:12:32;;;;;;;13.15;8.57;;;;;;;;;;5006425;28;20037;-86
2021/09/29 00:14:57;;;;;;;14.00;9.48;;;;;;;;;;5007343;28;20098;-86
2021/09/29 00:17:22;;;;;;;10.80;8.55;;;;;;;;;;5005438;28;20057;-87
2021/09/29 00:19:48;;;;;;;10.40;8.20;;;;;;;;;;5004173;28;20377;-86
2021/09/29 00:22:13;;;;;;;9.77;8.25;;;;;;;;;;5006317;28;20022;-86
2021/09/29 00:24:38;;;;;;;9.93;8.35;;;;;;;;;;5005084;28;20036;-87
2021/09/29 00:27:03;;;;;;;11.00;8.75;;;;;;;;;;5001832;28;20468;-87
2021/09/29 00:29:29;;;;;;;11.80;9.02;;;;;;;;;;5007539;28;20473;-86
2021/09/29 00:31:55;;;;;;;11.55;8.80;;;;;;;;;;5020785;28;20560;-86
2021/09/29 00:34:33;;;;;;;12.52;9.18;;;;;;;;;;5011015;28;20029;-87
2021/09/29 00:36:59;;;;;;;12.93;8.55;;;;;;;;;;5005823;28;20057;-87
2021/09/29 00:39:24;;;;;;;12.27;8.55;;;;;;;;;;5005262;28;20133;-86
2021/09/29 00:41:51;;;;;;;14.13;9.57;;;;;;;;;;5005128;28;20029;-86
2021/09/29 00:44:17;;;;;;;12.30;8.27;;;;;;;;;;5007074;28;20029;-87
2021/09/29 00:46:46;;;;;;;10.75;8.70;;;;;;;;;;5014383;28;20025;-86
2021/09/29 00:49:12;;;;;;;14.00;9.20;;;;;;;;;;5024409;28;20026;-87
2021/09/29 00:51:37;;;;;;;10.40;9.05;;;;;;;;;;5003399;28;20026;-86
2021/09/29 00:54:04;;;;;;;9.95;8.60;;;;;;;;;;5002580;28;20022;-87
2021/09/29 00:56:31;;;;;;;10.30;8.82;;;;;;;;;;5003483;28;20018;-87
2021/09/29 00:58:56;;;;;;;10.85;8.02;;;;;;;;;;5002972;28;20033;-87
2021/09/29 01:01:23;;;;;;;10.10;8.30;;;;;;;;;;5028286;28;20033;-86
2021/09/29 01:03:51;;;;;;;9.23;7.78;;;;;;;;;;5004639;28;20022;-87
2021/09/29 01:06:22;;;;;;;13.20;8.55;;;;;;;;;;5004021;28;20034;-86
2021/09/29 01:08:54;;;;;;;10.00;7.30;;;;;;;;;;5018123;28;20026;-86
2021/09/29 01:11:28;;;;;;;11.20;8.65;;;;;;;;;;5006897;28;20041;-87
2021/09/29 01:13:53;;;;;;;15.13;10.15;;;;;;;;;;5006790;28;20014;-86
2021/09/29 01:16:20;;;;;;;11.30;8.50;;;;;;;;;;5006633;28;20029;-87
2021/09/29 01:18:50;;;;;;;10.85;8.48;;;;;;;;;;5002047;28;20088;-87
2021/09/29 01:21:18;;;;;;;15.52;9.77;;;;;;;;;;5001841;28;20054;-86
2021/09/29 01:23:43;;;;;;;10.98;7.70;;;;;;;;;;5003714;28;20053;-87
2021/09/29 01:26:16;;;;;;;12.35;8.32;;;;;;;;;;5011623;28;20033;-88
2021/09/29 01:29:06;;;;;;;11.68;9.52;;;;;;;;;;5002865;28;20093;-86
2021/09/29 01:31:32;;;;;;;12.98;9.05;;;;;;;;;;5022833;28;20099;-86
2021/09/29 01:33:58;;;;;;;11.93;9.13;;;;;;;;;;5053867;28;20057;-87
2021/09/29 01:36:24;;;;;;;11.52;9.40;;;;;;;;;;5021691;28;20389;-86
2021/09/29 01:38:55;;;;;;;13.00;9.43;;;;;;;;;;5047663;28;20108;-86
2021/09/29 01:41:23;;;;;;;11.40;8.90;;;;;;;;;;5045604;28;20034;-86
2021/09/29 01:43:49;;;;;;;10.48;8.48;;;;;;;;;;5060057;28;20021;-86
2021/09/29 01:46:16;;;;;;;11.00;8.80;;;;;;;;;;5065881;28;20033;-86
2021/09/29 01:49:00;;;;;;;12.52;9.05;;;;;;;;;;5026884;28;20403;-85
2021/09/29 01:51:27;;;;;;;16.70;9.95;;;;;;;;;;5041093;28;20027;-86
2021/09/29 01:53:54;;;;;;;9.65;8.57;;;;;;;;;;5029580;28;20483;-85
2021/09/29 01:56:19;;;;;;;12.10;9.23;;;;;;;;;;5044320;28;20090;-86
2021/09/29 01:58:45;;;;;;;11.85;9.23;;;;;;;;;;5046512;28;20427;-86
2021/09/29 02:01:10;;;;;;;10.93;8.52;;;;;;;;;;5048514;28;20013;-86
2021/09/29 02:03:37;;;;;;;11.63;9.27;;;;;;;;;;5052970;28;20025;-85
2021/09/29 02:06:02;;;;;;;13.90;9.95;;;;;;;;;;5051594;28;20484;-85
2021/09/29 02:08:29;;;;;;;11.10;8.70;;;;;;;;;;5037869;28;20033;-85
2021/09/29 02:10:54;;;;;;;10.18;8.73;;;;;;;;;;5050193;28;20354;-85
2021/09/29 02:13:22;;;;;;;11.20;8.77;;;;;;;;;;5046227;28;20449;-85
2021/09/29 02:15:48;;;;;;;12.52;9.75;;;;;;;;;;5032050;28;20021;-86
2021/09/29 02:18:14;;;;;;;12.80;8.25;;;;;;;;;;5045566;28;20017;-86
2021/09/29 02:20:44;;;;;;;19.45;11.15;;;;;;;;;;5047479;28;20376;-86
2021/09/29 02:23:14;;;;;;;14.13;9.10;;;;;;;;;;5045690;28;20374;-85
2021/09/29 02:25:39;;;;;;;11.65;8.48;;;;;;;;;;5047419;28;20033;-85
2021/09/29 02:28:09;;;;;;;12.38;8.52;;;;;;;;;;5045827;28;20025;-85
2021/09/29 02:30:35;;;;;;;10.95;8.40;;;;;;;;;;5047736;28;20021;-86
2021/09/29 02:33:00;;;;;;;11.85;9.15;;;;;;;;;;5007971;28;20482;-86
2021/09/29 02:35:25;;;;;;;12.02;8.63;;;;;;;;;;5006843;28;20036;-85
2021/09/29 02:37:51;;;;;;;15.88;10.05;;;;;;;;;;5006652;28;20013;-87
2021/09/29 02:40:16;;;;;;;13.07;10.25;;;;;;;;;;5006745;28;20528;-85
2021/09/29 02:42:42;;;;;;;15.35;9.60;;;;;;;;;;5006238;28;20489;-85
2021/09/29 02:45:07;;;;;;;15.10;9.95;;;;;;;;;;5003900;28;20030;-86
2021/09/29 02:47:33;;;;;;;12.57;9.93;;;;;;;;;;5003888;28;20397;-85
2021/09/29 02:49:58;;;;;;;13.00;9.68;;;;;;;;;;4996161;28;20545;-85
2021/09/29 02:52:25;;;;;;;13.52;9.40;;;;;;;;;;5004657;28;20046;-86
2021/09/29 02:54:52;;;;;;;12.32;9.60;;;;;;;;;;5003500;28;20018;-85
2021/09/29 02:57:17;;;;;;;12.48;8.95;;;;;;;;;;5013091;28;20463;-86
2021/09/29 02:59:42;;;;;;;14.25;9.52;;;;;;;;;;5003761;28;20029;-85
2021/09/29 03:02:08;;;;;;;13.63;9.88;;;;;;;;;;5005575;28;20018;-85
2021/09/29 03:04:33;;;;;;;13.45;10.13;;;;;;;;;;5023262;28;20030;-85
2021/09/29 03:06:58;;;;;;;13.48;10.32;;;;;;;;;;5008215;28;20477;-85
2021/09/29 03:09:25;;;;;;;12.32;9.70;;;;;;;;;;5005849;28;20129;-85
2021/09/29 03:11:53;;;;;;;17.40;10.98;;;;;;;;;;5015415;28;20030;-86
2021/09/29 03:14:19;;;;;;;14.00;10.23;;;;;;;;;;5026583;28;20315;-85
2021/09/29 03:16:44;;;;;;;13.50;11.55;;;;;;;;;;5004849;28;20045;-86
2021/09/29 03:19:10;;;;;;;13.90;10.68;;;;;;;;;;5005596;28;20146;-86
2021/09/29 03:21:35;;;;;;;15.25;10.98;;;;;;;;;;5003121;28;20029;-86
2021/09/29 03:24:03;;;;;;;15.57;10.35;;;;;;;;;;5016675;28;20045;-85
2021/09/29 03:26:30;;;;;;;15.98;11.65;;;;;;;;;;5021313;28;20026;-85
2021/09/29 03:28:56;;;;;;;16.40;10.27;;;;;;;;;;5027002;28;20022;-86
2021/09/29 03:31:22;;;;;;;13.45;10.13;;;;;;;;;;5011804;28;20279;-85
2021/09/29 03:33:47;;;;;;;16.25;10.02;;;;;;;;;;5044134;28;20509;-85
2021/09/29 03:36:13;;;;;;;12.55;10.15;;;;;;;;;;5035842;28;20064;-85
2021/09/29 03:38:39;;;;;;;11.88;9.45;;;;;;;;;;5055755;28;20022;-84
2021/09/29 03:41:06;;;;;;;17.50;10.43;;;;;;;;;;5049696;28;20036;-85
2021/09/29 03:43:31;;;;;;;15.13;11.20;;;;;;;;;;5048513;28;20048;-86
2021/09/29 03:45:56;;;;;;;15.10;9.80;;;;;;;;;;5047380;28;20472;-85
2021/09/29 03:48:22;;;;;;;17.95;10.05;;;;;;;;;;5045802;28;20479;-85
2021/09/29 03:50:48;;;;;;;17.48;11.13;;;;;;;;;;5047592;28;20111;-85
2021/09/29 03:53:14;;;;;;;14.20;10.25;;;;;;;;;;5044016;28;20088;-84
2021/09/29 03:55:39;;;;;;;11.95;9.52;;;;;;;;;;5057453;28;20419;-85
2021/09/29 03:58:05;;;;;;;10.65;8.77;;;;;;;;;;5048996;28;20036;-84
2021/09/29 04:00:31;;;;;;;13.07;10.07;;;;;;;;;;5065760;28;20116;-84
2021/09/29 04:02:57;;;;;;;13.23;9.25;;;;;;;;;;5066574;28;20049;-86
2021/09/29 04:05:22;;;;;;;15.07;9.85;;;;;;;;;;5065178;28;20013;-86
2021/09/29 04:07:47;;;;;;;13.15;9.70;;;;;;;;;;5064424;28;20013;-85
2021/09/29 04:10:14;;;;;;;15.05;10.07;;;;;;;;;;5068650;28;20028;-86
2021/09/29 04:12:43;;;;;;;15.48;10.02;;;;;;;;;;5054170;28;20036;-85
2021/09/29 04:15:09;;;;;;;13.80;10.60;;;;;;;;;;5044272;28;20029;-86
2021/09/29 04:17:36;;;;;;;15.27;11.45;;;;;;;;;;5051033;28;20018;-85
2021/09/29 04:20:03;;;;;;;15.25;11.77;;;;;;;;;;5049679;28;20542;-85
2021/09/29 04:22:28;;;;;;;15.35;10.38;;;;;;;;;;5041715;28;20064;-85
2021/09/29 04:24:54;;;;;;;15.88;11.40;;;;;;;;;;5047010;28;20021;-85
2021/09/29 04:27:19;;;;;;;18.05;11.38;;;;;;;;;;5045070;28;20036;-86
2021/09/29 04:29:47;;;;;;;14.75;10.75;;;;;;;;;;5026854;28;20068;-85
2021/09/29 04:32:12;;;;;;;17.92;11.15;;;;;;;;;;5042671;28;20097;-85
2021/09/29 04:34:38;;;;;;;14.70;10.80;;;;;;;;;;5040180;28;20206;-85
2021/09/29 04:37:03;;;;;;;17.10;10.90;;;;;;;;;;5045312;28;20028;-85
2021/09/29 04:39:30;;;;;;;15.02;10.45;;;;;;;;;;5044078;28;20048;-87
2021/09/29 04:42:00;;;;;;;14.00;10.27;;;;;;;;;;5032201;28;20028;-86
2021/09/29 04:44:27;;;;;;;13.15;9.82;;;;;;;;;;5048496;28;20033;-85
2021/09/29 04:46:53;;;;;;;17.92;10.68;;;;;;;;;;5048031;28;20017;-86
2021/09/29 04:49:19;;;;;;;18.85;11.68;;;;;;;;;;5046420;28;20045;-86
2021/09/29 04:51:44;;;;;;;15.25;11.27;;;;;;;;;;5055761;28;20018;-86
2021/09/29 04:54:15;;;;;;;19.15;11.63;;;;;;;;;;5046800;28;20350;-85
2021/09/29 04:56:41;;;;;;;15.70;11.60;;;;;;;;;;5044997;28;20016;-87
2021/09/29 04:59:06;;;;;;;14.02;11.77;;;;;;;;;;5044105;28;20018;-86
2021/09/29 05:01:37;;;;;;;17.42;11.52;;;;;;;;;;5042469;28;20052;-87
2021/09/29 05:04:03;;;;;;;19.60;11.93;;;;;;;;;;5034120;28;20052;-86
2021/09/29 05:06:29;;;;;;;18.13;11.40;;;;;;;;;;5046380;28;20025;-86
2021/09/29 05:08:55;;;;;;;16.42;11.93;;;;;;;;;;5046126;28;20017;-88
2021/09/29 05:11:24;;;;;;;17.38;11.77;;;;;;;;;;5014666;28;20045;-86
2021/09/29 05:13:50;;;;;;;17.15;13.32;;;;;;;;;;5040979;28;20041;-88
2021/09/29 05:16:16;;;;;;;17.80;11.35;;;;;;;;;;5037411;28;20048;-85
2021/09/29 05:18:41;;;;;;;17.52;12.63;;;;;;;;;;5039410;28;20025;-88
2021/09/29 05:21:08;;;;;;;14.52;11.07;;;;;;;;;;5040483;28;20068;-86
2021/09/29 05:23:33;;;;;;;13.43;10.65;;;;;;;;;;5031267;28;20091;-86
2021/09/29 05:26:00;;;;;;;15.05;11.23;;;;;;;;;;5044823;28;20005;-85
2021/09/29 05:28:28;;;;;;;16.02;11.55;;;;;;;;;;5043689;28;20090;-86
2021/09/29 05:30:53;;;;;;;16.15;12.05;;;;;;;;;;5025861;28;20041;-85
2021/09/29 05:33:18;;;;;;;16.13;10.40;;;;;;;;;;5039044;28;20049;-85
2021/09/29 05:35:44;;;;;;;15.15;11.30;;;;;;;;;;5046372;28;20029;-85
2021/09/29 05:38:09;;;;;;;14.55;11.23;;;;;;;;;;5059821;28;20005;-84
2021/09/29 05:40:38;;;;;;;20.95;11.43;;;;;;;;;;5067246;28;20028;-84
2021/09/29 05:43:03;;;;;;;16.17;10.98;;;;;;;;;;5051102;28;20017;-89
2021/09/29 05:45:29;;;;;;;16.98;11.75;;;;;;;;;;5061623;28;20097;-84
2021/09/29 05:47:54;;;;;;;18.65;13.32;;;;;;;;;;5047705;28;20025;-86
2021/09/29 05:50:19;;;;;;;22.33;14.43;;;;;;;;;;5051450;28;20029;-87
2021/09/29 05:52:44;;;;;;;21.10;13.05;;;;;;;;;;5041699;28;20071;-85
2021/09/29 05:55:10;;;;;;;18.85;12.77;;;;;;;;;;5027556;28;20120;-85
2021/09/29 05:57:35;;;;;;;17.27;13.20;;;;;;;;;;5021603;28;20029;-85
2021/09/29 06:00:03;;;;;;;16.75;12.55;;;;;;;;;;5046001;28;20031;-86
2021/09/29 06:02:28;;;;;;;23.08;14.50;;;;;;;;;;5042752;28;20171;-85
2021/09/29 06:04:53;;;;;;;18.08;12.85;;;;;;;;;;5046579;28;20063;-85
2021/09/29 06:07:18;;;;;;;18.83;13.73;;;;;;;;;;5049144;28;20075;-85
2021/09/29 06:09:45;;;;;;;19.48;12.73;;;;;;;;;;5045208;28;20068;-87
2021/09/29 06:12:11;;;;;;;18.50;12.82;;;;;;;;;;5044003;28;20022;-86
2021/09/29 06:14:38;;;;;;;18.20;12.38;;;;;;;;;;5047123;28;20028;-86
2021/09/29 06:19:48;;;;;;;20.70;12.23;;;;;;;;;;5052122;28;20028;-87
2021/09/29 06:22:14;;;;;;;18.00;13.18;;;;;;;;;;5064342;28;20025;-85
2021/09/29 06:24:39;;;;;;;18.10;12.20;;;;;;;;;;5043437;28;20024;-87
2021/09/29 06:27:06;;;;;;;20.10;12.65;;;;;;;;;;5045311;28;20102;-86
2021/09/29 06:29:32;;;;;;;20.27;12.88;;;;;;;;;;5046956;28;20025;-85
2021/09/29 06:31:58;;;;;;;24.13;15.13;;;;;;;;;;5045594;28;20457;-86
2021/09/29 06:34:24;;;;;;;22.65;15.00;;;;;;;;;;5054031;28;20057;-84
2021/09/29 06:36:51;;;;;;;19.85;13.52;;;;;;;;;;5049026;28;20045;-84
2021/09/29 06:39:17;;;;;;;17.58;11.52;;;;;;;;;;5034777;28;20029;-85
2021/09/29 06:41:44;;;;;;;20.55;13.13;;;;;;;;;;5053872;28;20373;-84
2021/09/29 06:44:10;;;;;;;23.73;14.07;;;;;;;;;;5047619;28;20020;-84
2021/09/29 06:46:36;;;;;;;17.38;12.93;;;;;;;;;;5051233;28;20396;-84
2021/09/29 06:49:02;;;;;;;22.60;15.88;;;;;;;;;;5050326;28;20047;-85
2021/09/29 06:51:29;;;;;;;24.85;14.82;;;;;;;;;;5027050;28;20048;-85
2021/09/29 06:53:54;;;;;;;22.60;14.15;;;;;;;;;;5046610;28;20028;-86
2021/09/29 06:56:20;;;;;;;28.58;15.77;;;;;;;;;;5045889;28;20413;-85
2021/09/29 06:58:51;;;;;;;23.25;16.10;;;;;;;;;;5045753;28;20028;-85
2021/09/29 07:01:16;;;;;;;25.45;15.70;;;;;;;;;;5046781;28;20021;-85
2021/09/29 07:03:43;;;;;;;26.00;16.05;;;;;;;;;;5029092;28;20028;-87
2021/09/29 07:06:09;;;;;;;22.98;15.25;;;;;;;;;;5038489;28;20033;-86
2021/09/29 07:08:34;;;;;;;27.73;16.55;;;;;;;;;;5048200;28;20067;-86
2021/09/29 07:11:02;;;;;;;24.70;16.50;;;;;;;;;;5048382;28;20041;-85
2021/09/29 07:13:27;;;;;;;28.45;17.73;;;;;;;;;;5046301;28;20507;-87
2021/09/29 07:15:53;;;;;;;24.67;16.05;;;;;;;;;;5024246;28;20044;-85
2021/09/29 07:18:32;;;;;;;26.02;17.70;;;;;;;;;;5046074;28;20029;-86
2021/09/29 07:20:59;;;;;;;25.88;18.10;;;;;;;;;;5045058;28;20432;-86
2021/09/29 07:23:24;;;;;;;29.50;18.55;;;;;;;;;;5047509;28;20583;-85
2021/09/29 07:25:50;;;;;;;29.65;17.67;;;;;;;;;;5044972;28;20361;-86
2021/09/29 07:28:16;;;;;;;26.33;16.80;;;;;;;;;;5027514;28;20029;-86
2021/09/29 07:30:45;;;;;;;23.60;17.45;;;;;;;;;;5044184;28;20032;-86
2021/09/29 07:33:10;;;;;;;24.33;18.08;;;;;;;;;;5046113;28;20052;-86
2021/09/29 07:35:38;;;;;;;25.25;17.73;;;;;;;;;;5048483;28;20033;-86
2021/09/29 07:38:04;;;;;;;29.98;18.15;;;;;;;;;;5026840;28;20099;-86
2021/09/29 07:40:29;;;;;;;32.25;19.55;;;;;;;;;;5045617;28;20025;-87
2021/09/29 07:42:55;;;;;;;26.73;18.02;;;;;;;;;;5028940;28;20021;-85
2021/09/29 07:45:21;;;;;;;29.90;18.00;;;;;;;;;;5045870;28;20045;-86
2021/09/29 07:47:48;;;;;;;29.13;18.45;;;;;;;;;;5043606;28;20052;-86
2021/09/29 07:50:16;;;;;;;25.65;16.60;;;;;;;;;;5044338;28;20123;-86
2021/09/29 07:52:46;;;;;;;24.50;15.07;;;;;;;;;;5050467;28;20108;-86
2021/09/29 07:55:12;;;;;;;21.65;14.50;;;;;;;;;;5047342;28;20388;-86
2021/09/29 07:57:37;;;;;;;25.63;15.68;;;;;;;;;;5035325;28;20021;-86
2021/09/29 08:00:11;;;;;;;23.20;14.75;;;;;;;;;;5043331;28;20132;-86
2021/09/29 08:02:36;;;;;;;25.30;16.85;;;;;;;;;;5049861;28;20040;-87
2021/09/29 08:05:03;;;;;;;21.90;15.60;;;;;;;;;;5067825;28;20014;-88
2021/09/29 08:07:31;;;;;;;22.25;15.20;;;;;;;;;;5046545;28;20109;-87
2021/09/29 08:09:56;;;;;;;26.75;15.48;;;;;;;;;;5029638;28;20065;-87
2021/09/29 08:12:22;;;;;;;20.63;14.38;;;;;;;;;;5046433;28;20067;-87
2021/09/29 08:14:48;;;;;;;19.88;14.07;;;;;;;;;;5051675;28;20081;-87
2021/09/29 08:17:15;;;;;;;22.98;16.17;;;;;;;;;;5061879;28;20025;-87
2021/09/29 08:19:40;;;;;;;20.48;16.25;;;;;;;;;;5030524;28;20404;-87
2021/09/29 08:22:08;;;;;;;26.55;15.70;;;;;;;;;;5040414;28;20017;-87
2021/09/29 08:27:26;;;;;;;18.33;13.45;;;;;;;;;;5038711;28;20040;-86
2021/09/29 08:32:33;;;;;;;20.23;13.85;;;;;;;;;;5022520;28;20358;-87
2021/09/29 08:35:09;;;;;;;18.88;13.70;;;;;;;;;;5022330;28;20160;-87
2021/09/29 08:37:45;;;;;;;21.40;15.45;;;;;;;;;;5040012;28;20025;-87
2021/09/29 08:40:19;;;;;;;22.77;14.88;;;;;;;;;;5044784;28;20021;-88
2021/09/29 08:45:19;;;;;;;21.95;15.50;;;;;;;;;;5054632;28;20039;-86
2021/09/29 08:47:55;;;;;;;24.48;15.02;;;;;;;;;;5043455;28;20025;-89
2021/09/29 09:17:27;;;;;;;20.02;15.82;;;;;;;;;;5040345;28;20033;-88
2021/09/29 09:19:53;;;;;;;18.73;15.00;;;;;;;;;;5041846;28;20384;-88
2021/09/29 09:22:18;;;;;;;21.88;15.82;;;;;;;;;;5027084;28;20028;-87
2021/09/29 09:24:54;;;;;;;23.55;17.55;;;;;;;;;;5054093;28;20070;-87
2021/09/29 09:27:20;;;;;;;21.08;14.77;;;;;;;;;;5057785;28;20036;-87
2021/09/29 09:29:46;;;;;;;22.23;16.35;;;;;;;;;;5044901;28;20024;-86
2021/09/29 09:32:13;;;;;;;22.90;14.65;;;;;;;;;;5043940;28;20104;-88
2021/09/29 09:34:39;;;;;;;20.45;15.60;;;;;;;;;;5041406;28;20053;-87
2021/09/29 09:37:13;;;;;;;35.15;16.20;;;;;;;;;;5043445;28;20042;-87
2021/09/29 09:39:42;;;;;;;23.25;15.77;;;;;;;;;;5038377;28;20112;-87
2021/09/29 09:42:10;;;;;;;20.20;15.55;;;;;;;;;;5041625;28;20469;-87
2021/09/29 09:44:38;;;;;;;20.85;14.57;;;;;;;;;;5044400;28;20032;-87
2021/09/29 09:47:06;;;;;;;23.70;14.73;;;;;;;;;;5044755;28;20025;-87
2021/09/29 09:49:43;;;;;;;23.52;16.00;;;;;;;;;;5041577;28;20025;-88
2021/09/29 09:52:08;;;;;;;25.70;14.88;;;;;;;;;;5028420;28;20075;-87
2021/09/29 09:54:40;;;;;;;24.83;16.20;;;;;;;;;;5042294;28;20029;-86
2021/09/29 09:57:16;;;;;;;21.13;15.15;;;;;;;;;;5037576;28;20396;-87
2021/09/29 09:59:45;;;;;;;20.45;14.98;;;;;;;;;;5045412;28;20026;-88
2021/09/29 10:02:12;;;;;;;22.05;14.52;;;;;;;;;;5047451;28;20048;-87
2021/09/29 10:04:41;;;;;;;22.27;14.23;;;;;;;;;;5041343;28;20499;-87
2021/09/29 10:07:07;;;;;;;20.15;13.63;;;;;;;;;;5042130;28;20029;-88
2021/09/29 10:09:55;;;;;;;19.20;13.70;;;;;;;;;;5023881;28;20013;-88
2021/09/29 10:12:31;;;;;;;20.63;13.90;;;;;;;;;;5044236;28;20017;-87
2021/09/29 10:15:25;;;;;;;22.20;15.38;;;;;;;;;;5029231;28;20047;-87
2021/09/29 10:28:44;;;;;;;19.38;13.95;;;;;;;;;;5023481;28;20026;-86
2021/09/29 10:31:31;;;;;;;23.10;14.70;;;;;;;;;;5032804;28;20045;-87
2021/09/29 10:34:12;;;;;;;26.50;16.77;;;;;;;;;;5010530;28;20058;-87
2021/09/29 11:02:42;;;;;;;18.70;13.60;;;;;;;;;;5014491;28;20487;-87
2021/09/29 11:33:55;;;;;;;20.77;13.25;;;;;;;;;;5016312;28;20457;-86
2021/09/29 12:11:40;;;;;;;14.93;10.13;;;;;;;;;;5048480;28;20380;-87
2021/09/29 12:14:13;;;;;;;13.73;9.95;;;;;;;;;;5051405;28;20441;-87
2021/09/29 12:16:38;;;;;;;23.10;11.32;;;;;;;;;;5049096;28;20079;-87
2021/09/29 12:19:09;;;;;;;21.48;11.60;;;;;;;;;;5031822;28;20554;-87
2021/09/29 12:21:43;;;;;;;25.00;11.25;;;;;;;;;;5032944;28;20112;-87
2021/09/29 12:24:14;;;;;;;24.45;12.70;;;;;;;;;;5026145;28;20120;-87
2021/09/29 12:26:51;;;;;;;17.55;11.45;;;;;;;;;;5044670;28;20029;-87
2021/09/29 12:29:37;;;;;;;20.95;11.55;;;;;;;;;;5028960;28;20026;-87
2021/09/29 12:35:21;;;;;;;12.75;7.53;;;;;;;;;;5047181;28;20053;-88
2021/09/29 12:37:59;;;;;;;1.55;1.45;;;;;;;;;;5026676;28;20049;-88
2021/09/29 12:40:25;;;;;;;1.60;1.50;;;;;;;;;;5026148;28;20017;-88
2021/09/29 12:42:58;;;;;;;2.35;1.40;;;;;;;;;;5052764;28;20017;-87
2021/09/29 12:45:25;;;;;;;1.55;1.50;;;;;;;;;;5041894;28;20464;-86
2021/09/29 12:47:51;;;;;;;1.48;1.42;;;;;;;;;;5041797;28;20021;-86
2021/09/29 12:50:22;;;;;;;1.45;1.45;;;;;;;;;;5041698;28;20060;-88
2021/09/29 12:53:16;;;;;;;1.23;1.23;;;;;;;;;;5047294;28;20037;-87
2021/09/29 12:55:45;;;;;;;1.30;1.20;;;;;;;;;;5046428;28;20040;-88
2021/09/29 12:58:10;;;;;;;1.30;1.20;;;;;;;;;;5057843;28;20025;-87
2021/09/29 13:00:36;;;;;;;1.55;1.40;;;;;;;;;;5024026;28;20035;-88
2021/09/29 13:05:44;;;;;;;2.05;1.95;;;;;;;;;;5052126;28;20057;-63
2021/09/29 13:08:28;;;;;;;1.80;1.63;;;;;;;;;;5043292;28;20560;-63
2021/09/29 13:10:54;;;;;;;1.40;1.40;;;;;;;;;;5037078;28;20179;-63
2021/09/29 13:13:20;;;;;;;1.35;1.25;;;;;;;;;;5043217;28;20433;-63
2021/09/29 13:15:48;;;;;;;1.42;1.33;;;;;;;;;;5038209;28;20431;-64
2021/09/29 13:20:50;;;;;;;3.70;1.48;;;;;;;;;;5031974;28;20033;-63
2021/09/29 13:23:26;;;;;;;1.20;1.20;;;;;;;;;;5037571;28;20033;-62
2021/09/29 13:36:38;;;;;;;1.77;1.58;;;;;;;;;;5035369;28;20040;-63
2021/09/29 13:39:06;;;;;;;1.30;1.30;;;;;;;;;;5034452;28;20041;-64
2021/09/29 13:41:32;;;;;;;1.67;1.58;;;;;;;;;;5037245;28;20467;-63
2021/09/29 13:43:57;;;;;;;3.45;1.77;;;;;;;;;;5040244;28;20109;-64
2021/09/29 13:46:22;;;;;;;1.58;1.48;;;;;;;;;;5036870;28;20048;-62
2021/09/29 13:48:51;;;;;;;1.63;1.52;;;;;;;;;;5040984;28;20044;-62
2021/09/29 13:51:16;;;;;;;1.90;1.80;;;;;;;;;;5044942;28;20033;-63
2021/09/29 13:53:41;;;;;;;1.67;1.58;;;;;;;;;;5046173;28;20502;-64
2021/09/29 13:56:10;;;;;;;1.70;1.60;;;;;;;;;;5037142;28;20059;-63
2021/09/29 13:59:04;;;;;;;2.05;1.95;;;;;;;;;;5035012;28;20073;-62
2021/09/29 14:30:55;;;;;;;3.30;1.40;;;;;;;;;;5045064;28;20036;-62
2021/09/29 14:33:26;;;;;;;1.83;1.55;;;;;;;;;;5044364;28;20029;-64
2021/09/29 14:35:51;;;;;;;1.67;1.58;;;;;;;;;;5050390;28;20075;-64
2021/09/29 14:38:17;;;;;;;1.75;1.65;;;;;;;;;;5043445;28;20029;-64
2021/09/29 14:40:42;;;;;;;2.20;2.10;;;;;;;;;;5030719;28;20556;-64
2021/09/29 14:43:08;;;;;;;1.88;1.77;;;;;;;;;;5043336;28;20033;-65
2021/09/29 14:45:35;;;;;;;1.70;1.60;;;;;;;;;;5035305;28;20029;-64
2021/09/29 14:48:00;;;;;;;1.90;1.50;;;;;;;;;;5033174;28;20052;-65
2021/09/29 14:50:28;;;;;;;2.00;1.90;;;;;;;;;;5030779;28;20072;-64
2021/09/29 14:52:57;;;;;;;6.38;1.80;;;;;;;;;;5033790;28;20524;-66
2021/09/29 14:55:23;;;;;;;2.17;1.98;;;;;;;;;;5038531;28;20029;-66
2021/09/29 14:57:49;;;;;;;2.10;2.00;;;;;;;;;;5035325;28;20017;-66
2021/09/29 15:00:14;;;;;;;2.35;2.25;;;;;;;;;;5033738;28;20037;-64
2021/09/29 15:02:40;;;;;;;2.75;2.50;;;;;;;;;;5039093;28;20010;-65
2021/09/29 15:05:05;;;;;;;2.10;1.95;;;;;;;;;;5035815;28;20045;-65
2021/09/29 15:07:30;;;;;;;1.85;1.75;;;;;;;;;;5047647;28;20074;-67
2021/09/29 15:09:55;;;;;;;1.70;1.60;;;;;;;;;;5046866;28;20017;-67
2021/09/29 15:12:21;;;;;;;2.63;2.08;;;;;;;;;;5053701;28;20104;-67
2021/09/29 15:15:25;;;;;;;1.95;1.85;;;;;;;;;;5055653;28;20021;-67
2021/09/29 15:17:55;;;;;;;2.47;2.35;;;;;;;;;;5049185;28;20033;-66
2021/09/29 15:23:13;;;;;;;2.42;2.22;;;;;;;;;;5036615;28;20120;-67
2021/09/29 15:50:08;;;;;;;2.20;2.10;;;;;;;;;;4990148;28;20022;-66
2021/09/29 15:53:21;;;;;;;2.22;2.13;;;;;;;;;;4992072;28;20026;-66
2021/09/29 16:01:36;;;;;;;2.20;2.10;;;;;;;;;;4991158;28;20453;-64
2021/09/29 16:08:48;;;;;;;4.15;3.60;;;;;;;;;;4989605;28;20026;-64
2021/09/29 16:32:24;;;;;;;2.50;2.30;;;;;;;;;;5029697;28;20068;-63
2021/09/29 16:37:30;;;;;;;2.30;2.20;;;;;;;;;;5032309;28;20030;-65
2021/09/29 16:39:55;;;;;;;5.45;2.35;;;;;;;;;;5032193;28;20104;-65
2021/09/29 16:42:21;;;;;;;3.00;2.80;;;;;;;;;;5028681;28;20155;-65
2021/09/29 16:44:46;;;;;;;5.65;2.58;;;;;;;;;;5028651;28;20029;-65
2021/09/29 16:47:12;;;;;;;3.00;2.65;;;;;;;;;;5050710;28;20129;-65
2021/09/29 16:49:39;;;;;;;3.33;2.50;;;;;;;;;;5049959;28;20438;-65
2021/09/29 16:54:32;;;;;;;3.35;1.95;;;;;;;;;;5048828;28;20048;-65
2021/09/29 16:56:58;;;;;;;2.20;1.73;;;;;;;;;;5047575;28;20112;-65
2021/09/29 17:01:49;;;;;;;3.80;3.17;;;;;;;;;;5043507;28;20103;-63
2021/09/29 17:04:14;;;;;;;4.20;3.28;;;;;;;;;;5048353;28;20058;-64
2021/09/29 17:06:39;;;;;;;9.18;3.17;;;;;;;;;;5046229;28;20025;-64
2021/09/29 17:09:05;;;;;;;4.90;3.05;;;;;;;;;;5049358;28;20029;-64
2021/09/29 17:11:30;;;;;;;2.75;2.53;;;;;;;;;;5048646;28;20376;-65
2021/09/29 17:13:56;;;;;;;4.03;2.90;;;;;;;;;;5048720;28;20021;-65
2021/09/29 17:16:24;;;;;;;2.00;1.90;;;;;;;;;;5037155;28;20463;-64
2021/09/29 17:18:50;;;;;;;3.97;2.17;;;;;;;;;;5033248;28;20036;-65
2021/09/29 17:21:16;;;;;;;4.90;2.00;;;;;;;;;;5034873;28;20384;-66
2021/09/29 17:23:42;;;;;;;3.72;2.40;;;;;;;;;;5029121;28;20383;-64
2021/09/29 17:26:07;;;;;;;3.10;2.80;;;;;;;;;;5038022;28;20022;-64
2021/09/29 17:28:33;;;;;;;3.55;2.80;;;;;;;;;;5034687;28;20021;-64
2021/09/29 17:31:02;;;;;;;3.22;2.25;;;;;;;;;;5035830;28;20099;-64
2021/09/29 17:38:43;;;;;;;2.00;1.90;;;;;;;;;;5038836;28;20021;-65
2021/09/29 17:52:14;;;;;;;2.20;2.00;;;;;;;;;;5047726;28;21144;-65
2021/09/29 17:54:39;;;;;;;2.70;2.30;;;;;;;;;;5048499;28;20663;-65
2021/09/29 17:57:04;;;;;;;2.75;2.10;;;;;;;;;;5050121;28;20275;-64
2021/09/29 17:59:32;;;;;;;4.22;2.80;;;;;;;;;;5047141;28;20572;-65
2021/09/29 18:02:03;;;;;;;3.17;2.92;;;;;;;;;;5045965;28;20025;-65
2021/09/29 18:04:29;;;;;;;4.05;3.33;;;;;;;;;;5043427;28;20057;-65
2021/09/29 18:09:32;;;;;;;6.10;4.45;;;;;;;;;;5043017;28;20071;-65
2021/09/29 18:11:57;;;;;;;4.15;3.75;;;;;;;;;;5042633;28;20036;-64
2021/09/29 18:14:23;;;;;;;4.90;4.28;;;;;;;;;;5043937;28;20033;-65
2021/09/29 18:16:49;;;;;;;5.32;3.58;;;;;;;;;;5038527;28;20032;-65
2021/09/29 18:19:14;;;;;;;4.25;3.85;;;;;;;;;;5040083;28;20071;-65
2021/09/29 18:21:39;;;;;;;5.38;4.20;;;;;;;;;;5041003;28;20025;-65
2021/09/29 18:24:05;;;;;;;5.22;4.72;;;;;;;;;;5042806;28;20063;-64
2021/09/29 18:26:30;;;;;;;4.70;3.95;;;;;;;;;;5040722;28;20029;-64
2021/09/29 18:28:56;;;;;;;3.83;3.40;;;;;;;;;;5039991;28;20112;-64
2021/09/29 18:31:21;;;;;;;5.28;3.58;;;;;;;;;;5038997;28;20024;-64
2021/09/29 18:33:47;;;;;;;5.65;4.60;;;;;;;;;;5037732;28;20486;-64
2021/09/29 18:36:14;;;;;;;3.40;3.10;;;;;;;;;;5038877;28;20551;-64
2021/09/29 18:38:41;;;;;;;16.83;5.57;;;;;;;;;;5038907;28;20036;-63
2021/09/29 18:41:07;;;;;;;4.93;4.18;;;;;;;;;;5039809;28;20017;-64
2021/09/29 18:43:34;;;;;;;4.82;4.43;;;;;;;;;;5035728;28;20133;-62
2021/09/29 18:45:59;;;;;;;4.38;3.97;;;;;;;;;;5032065;28;20041;-64
2021/09/29 18:48:24;;;;;;;4.35;3.85;;;;;;;;;;5037657;28;20387;-63
2021/09/29 18:50:50;;;;;;;5.15;4.47;;;;;;;;;;5039072;28;20046;-64
2021/09/29 18:53:15;;;;;;;4.97;4.47;;;;;;;;;;5039662;28;20117;-64
2021/09/29 18:55:45;;;;;;;6.50;5.78;;;;;;;;;;5036906;28;20026;-63
2021/09/29 19:09:19;;;;;;;10.82;8.15;;;;;;;;;;5040170;28;20449;-64
2021/09/29 19:11:45;;;;;;;12.50;8.95;;;;;;;;;;5038896;28;20037;-64
2021/09/29 19:14:10;;;;;;;7.43;6.68;;;;;;;;;;5033213;28;20109;-65